createdAt,value
2022-09-14T00:01:41.481Z,2.00
2022-09-14T00:04:11.784Z,1.77
2022-09-14T00:06:39.343Z,1.23
2022-09-14T00:09:07.504Z,1.50
2022-09-14T00:11:36.198Z,2.23
2022-09-14T00:14:04.165Z,1.90
2022-09-14T00:16:32.657Z,1.37
2022-09-14T00:19:01.431Z,1.80
2022-09-14T00:21:28.434Z,1.97
2022-09-14T00:23:55.446Z,1.50
2022-09-14T00:26:24.202Z,2.47
2022-09-14T00:28:53.412Z,1.60
2022-09-14T00:31:21.707Z,2.23
2022-09-14T00:33:50.443Z,1.60
2022-09-14T00:36:19.710Z,2.30
2022-09-14T00:38:47.343Z,2.00
2022-09-14T00:41:17.725Z,1.80
2022-09-14T00:43:58.242Z,1.60
2022-09-14T00:46:27.788Z,1.53
2022-09-14T00:48:55.680Z,2.00
2022-09-14T00:51:23.053Z,1.30
2022-09-14T00:53:50.732Z,1.40
2022-09-14T00:56:17.926Z,2.20
2022-09-14T00:58:47.683Z,1.63
2022-09-14T01:01:16.694Z,1.77
2022-09-14T01:03:43.466Z,1.60
2022-09-14T01:06:18.241Z,1.67
2022-09-14T01:09:05.842Z,1.03
2022-09-14T01:11:59.185Z,1.97
2022-09-14T01:14:31.818Z,1.40
2022-09-14T01:17:06.627Z,2.00
2022-09-14T01:19:46.253Z,3.07
2022-09-14T01:22:18.848Z,2.50
2022-09-14T01:24:48.770Z,2.60
2022-09-14T01:27:27.677Z,1.93
2022-09-14T01:30:04.112Z,2.03
2022-09-14T01:32:35.807Z,1.80
2022-09-14T01:35:15.202Z,1.87
2022-09-14T01:37:46.636Z,1.73
2022-09-14T01:40:17.522Z,2.50
2022-09-14T01:42:49.729Z,2.20
2022-09-14T01:45:19.589Z,2.27
2022-09-14T01:47:51.768Z,2.00
2022-09-14T01:50:23.047Z,2.10
2022-09-14T01:52:54.575Z,2.23
2022-09-14T01:55:25.960Z,1.90
2022-09-14T01:58:00.210Z,2.83
2022-09-14T02:00:27.549Z,1.80
2022-09-14T02:02:57.062Z,1.60
2022-09-14T02:05:28.528Z,2.00
2022-09-14T02:07:56.235Z,1.80
2022-09-14T02:10:24.297Z,2.20
2022-09-14T02:12:51.718Z,1.73
2022-09-14T02:15:21.011Z,2.07
2022-09-14T02:17:48.896Z,2.07
2022-09-14T02:20:20.631Z,2.77
2022-09-14T02:22:47.854Z,2.83
2022-09-14T02:25:15.038Z,2.60
2022-09-14T02:27:41.838Z,2.90
2022-09-14T02:30:09.905Z,2.40
2022-09-14T02:32:44.989Z,2.00
2022-09-14T02:35:20.826Z,1.97
2022-09-14T02:37:54.690Z,2.00
2022-09-14T02:40:34.538Z,1.67
2022-09-14T02:43:11.140Z,2.07
2022-09-14T02:45:44.844Z,1.33
2022-09-14T02:48:22.874Z,1.53
2022-09-14T02:50:57.304Z,1.50
2022-09-14T02:53:28.282Z,1.90
2022-09-14T02:55:59.333Z,1.40
2022-09-14T02:58:34.476Z,1.13
2022-09-14T03:01:01.362Z,1.40
2022-09-14T03:03:33.466Z,1.77
2022-09-14T03:06:02.203Z,2.07
2022-09-14T03:08:29.076Z,2.20
2022-09-14T03:10:56.020Z,1.63
2022-09-14T03:13:23.234Z,2.07
2022-09-14T03:15:50.221Z,2.20
2022-09-14T03:18:17.247Z,1.87
2022-09-14T03:20:45.478Z,1.70
2022-09-14T03:23:13.169Z,2.00
2022-09-14T03:25:41.808Z,1.43
2022-09-14T03:28:09.446Z,1.40
2022-09-14T03:30:36.680Z,1.70
2022-09-14T03:33:03.699Z,1.30
2022-09-14T03:35:30.900Z,1.50
2022-09-14T03:38:00.251Z,1.33
2022-09-14T03:40:27.419Z,1.60
2022-09-14T03:42:54.737Z,1.33
2022-09-14T03:45:21.950Z,1.53
2022-09-14T03:47:49.387Z,1.30
2022-09-14T03:50:17.964Z,1.10
2022-09-14T03:52:44.901Z,1.63
2022-09-14T03:55:13.209Z,1.10
2022-09-14T03:57:40.264Z,1.90
2022-09-14T04:00:09.144Z,1.87
2022-09-14T04:02:36.107Z,1.80
2022-09-14T04:05:03.214Z,1.80
2022-09-14T04:07:30.022Z,2.13
2022-09-14T04:09:58.795Z,1.83
2022-09-14T04:12:27.465Z,1.00
2022-09-14T04:14:54.456Z,2.00
2022-09-14T04:17:21.241Z,1.83
2022-09-14T04:19:48.097Z,1.40
2022-09-14T04:22:14.785Z,0.80
2022-09-14T04:24:41.532Z,1.40
2022-09-14T04:27:08.234Z,1.60
2022-09-14T04:29:36.335Z,1.50
2022-09-14T04:32:03.802Z,1.80
2022-09-14T04:34:30.536Z,1.43
2022-09-14T04:36:57.237Z,2.17
2022-09-14T04:39:24.040Z,1.87
2022-09-14T04:41:50.771Z,2.00
2022-09-14T04:44:17.523Z,1.27
2022-09-14T04:46:47.101Z,1.00
2022-09-14T04:49:14.990Z,0.83
2022-09-14T04:51:41.761Z,1.00
2022-09-14T04:54:09.926Z,1.50
2022-09-14T04:56:37.010Z,1.00
2022-09-14T04:59:05.260Z,2.10
2022-09-14T05:01:34.496Z,1.90
2022-09-14T05:04:03.425Z,1.43
2022-09-14T05:06:32.571Z,1.90
2022-09-14T05:09:00.425Z,1.30
2022-09-14T05:11:30.201Z,1.67
2022-09-14T05:13:57.953Z,1.47
2022-09-14T05:16:27.584Z,1.53
2022-09-14T05:18:55.654Z,1.30
2022-09-14T05:21:24.635Z,2.17
2022-09-14T05:23:55.435Z,1.63
2022-09-14T05:26:23.349Z,1.03
2022-09-14T05:28:51.731Z,1.27
2022-09-14T05:31:19.182Z,1.63
2022-09-14T05:33:46.564Z,1.40
2022-09-14T05:36:13.563Z,1.30
2022-09-14T05:38:42.061Z,1.67
2022-09-14T05:41:11.315Z,2.30
2022-09-14T05:43:38.341Z,1.70
2022-09-14T05:46:07.658Z,1.93
2022-09-14T05:48:35.817Z,1.80
2022-09-14T05:51:06.274Z,2.17
2022-09-14T05:53:33.919Z,2.67
2022-09-14T05:56:03.896Z,2.10
2022-09-14T05:58:31.252Z,2.87
2022-09-14T06:00:58.403Z,1.93
2022-09-14T06:03:25.448Z,2.33
2022-09-14T06:05:52.320Z,2.87
2022-09-14T06:08:19.238Z,2.40
2022-09-14T06:10:46.229Z,2.00
2022-09-14T06:13:14.419Z,1.80
2022-09-14T06:15:41.157Z,2.10
2022-09-14T06:18:07.936Z,1.80
2022-09-14T06:20:34.862Z,2.20
2022-09-14T06:23:01.714Z,2.80
2022-09-14T06:25:28.504Z,2.40
2022-09-14T06:27:55.438Z,2.47
2022-09-14T06:30:23.588Z,2.50
2022-09-14T06:32:50.344Z,2.87
2022-09-14T06:35:17.343Z,3.30
2022-09-14T06:37:44.131Z,3.00
2022-09-14T06:40:11.458Z,3.57
2022-09-14T06:42:38.348Z,2.40
2022-09-14T06:45:06.405Z,3.20
2022-09-14T06:47:37.365Z,2.00
2022-09-14T06:50:05.459Z,3.13
2022-09-14T06:52:33.882Z,2.77
2022-09-14T06:55:01.209Z,2.33
2022-09-14T06:57:28.015Z,3.50
2022-09-14T06:59:54.827Z,2.57
2022-09-14T07:02:21.710Z,2.60
2022-09-14T07:04:49.887Z,2.10
2022-09-14T07:07:16.731Z,2.70
2022-09-14T07:09:43.586Z,2.33
2022-09-14T07:12:10.446Z,2.10
2022-09-14T07:14:37.307Z,2.60
2022-09-14T07:17:04.441Z,3.00
2022-09-14T07:19:31.246Z,3.87
2022-09-14T07:22:00.425Z,3.43
2022-09-14T07:24:27.242Z,2.30
2022-09-14T07:26:54.045Z,1.87
2022-09-14T07:29:21.080Z,2.03
2022-09-14T07:31:49.995Z,2.40
2022-09-14T07:34:17.188Z,2.30
2022-09-14T07:36:44.171Z,2.43
2022-09-14T07:39:13.773Z,2.70
2022-09-14T07:41:40.969Z,3.23
2022-09-14T07:44:09.327Z,2.37
2022-09-14T07:46:38.614Z,2.00
2022-09-14T07:49:06.439Z,1.20
2022-09-14T07:51:34.560Z,2.00
2022-09-14T07:54:01.456Z,2.23
2022-09-14T07:56:30.158Z,2.37
2022-09-14T07:59:11.394Z,1.60
2022-09-14T08:01:45.385Z,2.90
2022-09-14T08:04:12.303Z,2.50
2022-09-14T08:06:39.050Z,2.60
2022-09-14T08:09:06.921Z,2.63
2022-09-14T08:11:35.578Z,1.50
2022-09-14T08:14:04.668Z,1.90
2022-09-14T08:16:33.278Z,1.90
2022-09-14T08:19:02.210Z,1.87
2022-09-14T08:21:30.484Z,2.60
2022-09-14T08:23:57.327Z,1.80
2022-09-14T08:26:25.867Z,2.50
2022-09-14T08:28:55.343Z,1.77
2022-09-14T08:31:23.295Z,1.73
2022-09-14T08:33:52.228Z,2.33
2022-09-14T08:36:21.085Z,1.90
2022-09-14T08:38:48.370Z,1.63
2022-09-14T08:41:28.116Z,1.80
2022-09-14T08:44:00.349Z,1.60
2022-09-14T08:46:31.252Z,1.77
2022-09-14T08:48:59.523Z,1.77
2022-09-14T08:51:26.672Z,1.73
2022-09-14T08:53:56.288Z,1.70
2022-09-14T08:56:26.280Z,2.27
2022-09-14T08:59:05.808Z,1.47
2022-09-14T09:01:44.007Z,2.00
2022-09-14T09:04:30.465Z,2.27
2022-09-14T09:07:05.344Z,1.10
2022-09-14T09:09:42.416Z,1.27
2022-09-14T09:12:13.321Z,1.67
2022-09-14T09:14:45.997Z,1.73
2022-09-14T09:17:17.480Z,2.00
2022-09-14T09:19:53.670Z,1.57
2022-09-14T09:22:24.707Z,1.53
2022-09-14T09:24:54.182Z,1.77
2022-09-14T09:27:22.631Z,1.33
2022-09-14T09:29:50.775Z,1.43
2022-09-14T09:32:20.245Z,1.20
2022-09-14T09:34:47.417Z,2.50
2022-09-14T09:37:15.989Z,1.53
2022-09-14T09:39:43.788Z,1.97
2022-09-14T09:42:14.886Z,1.93
2022-09-14T09:45:01.806Z,1.63
2022-09-14T09:47:32.639Z,1.83
2022-09-14T09:50:01.504Z,1.80
2022-09-14T09:52:29.783Z,1.27
2022-09-14T09:54:57.640Z,1.70
2022-09-14T09:57:29.831Z,1.80
2022-09-14T10:00:22.288Z,1.23
2022-09-14T10:02:49.567Z,1.90
2022-09-14T10:05:23.055Z,1.50
2022-09-14T10:07:55.408Z,1.20
2022-09-14T10:10:25.876Z,1.40
2022-09-14T10:12:55.114Z,1.17
2022-09-14T10:15:25.317Z,1.70
2022-09-14T10:18:01.556Z,0.90
2022-09-14T10:20:31.355Z,1.60
2022-09-14T10:23:20.287Z,1.67
2022-09-14T10:25:48.424Z,1.10
2022-09-14T10:28:22.745Z,1.30
2022-09-14T10:30:56.813Z,1.30
2022-09-14T10:33:23.898Z,1.40
2022-09-14T10:35:58.681Z,1.40
2022-09-14T10:38:31.452Z,1.20
2022-09-14T10:41:09.477Z,1.47
2022-09-14T10:43:55.724Z,1.80
2022-09-14T10:46:29.738Z,2.07
2022-09-14T10:49:20.978Z,1.67
2022-09-14T10:51:58.130Z,1.60
2022-09-14T10:54:51.081Z,1.33
2022-09-14T10:57:26.399Z,1.43
2022-09-14T10:59:55.768Z,1.90
2022-09-14T11:03:03.935Z,1.60
2022-09-14T11:05:34.433Z,1.30
2022-09-14T11:08:12.359Z,0.90
2022-09-14T11:10:50.846Z,1.37
2022-09-14T11:13:37.612Z,1.47
2022-09-14T11:16:15.584Z,1.53
2022-09-14T11:18:49.512Z,1.20
2022-09-14T11:21:20.897Z,1.87
2022-09-14T11:23:51.910Z,1.57
2022-09-14T11:26:25.519Z,0.90
2022-09-14T11:28:54.871Z,1.50
2022-09-14T11:31:26.694Z,2.10
2022-09-14T11:34:05.689Z,1.20
2022-09-14T11:36:37.251Z,1.53
2022-09-14T11:39:11.079Z,1.97
2022-09-14T11:41:43.273Z,1.93
2022-09-14T11:44:15.741Z,1.50
2022-09-14T11:46:46.779Z,1.67
2022-09-14T11:49:19.771Z,1.43
2022-09-14T11:51:51.287Z,1.63
2022-09-14T11:54:21.272Z,1.13
2022-09-14T11:56:50.285Z,1.60
2022-09-14T11:59:45.682Z,1.67
2022-09-14T12:02:52.057Z,1.37
2022-09-14T12:05:36.536Z,1.10
2022-09-14T12:08:35.642Z,1.00
2022-09-14T12:11:05.721Z,1.40
2022-09-14T12:13:32.822Z,1.67
2022-09-14T12:16:04.316Z,1.50
2022-09-14T12:18:32.387Z,1.27
2022-09-14T12:21:06.319Z,1.77
2022-09-14T12:23:43.022Z,1.43
2022-09-14T12:26:29.402Z,1.83
2022-09-14T12:29:00.948Z,1.53
2022-09-14T12:31:57.915Z,1.70
2022-09-14T12:34:25.738Z,1.57
2022-09-14T12:37:03.099Z,1.90
2022-09-14T12:39:31.574Z,1.47
2022-09-14T12:42:01.847Z,1.57
2022-09-14T12:44:39.520Z,1.77
2022-09-14T12:47:58.163Z,1.90
2022-09-14T12:50:30.098Z,2.03
2022-09-14T12:53:23.171Z,1.63
2022-09-14T12:56:01.583Z,2.23
2022-09-14T12:58:55.294Z,1.77
2022-09-14T13:01:31.886Z,1.37
2022-09-14T13:03:58.954Z,1.43
2022-09-14T13:06:33.582Z,2.20
2022-09-14T13:09:03.709Z,1.60
2022-09-14T13:11:38.295Z,1.50
2022-09-14T13:14:05.245Z,1.30
2022-09-14T13:16:38.825Z,1.13
2022-09-14T13:19:18.128Z,1.17
2022-09-14T13:21:46.771Z,2.10
2022-09-14T13:24:30.829Z,1.63
2022-09-14T13:26:59.711Z,1.60
2022-09-14T13:29:27.058Z,1.33
2022-09-14T13:31:59.731Z,1.80
2022-09-14T13:34:33.622Z,1.80
2022-09-14T13:37:00.827Z,1.70
2022-09-14T13:39:31.160Z,1.50
2022-09-14T13:41:58.492Z,1.80
2022-09-14T13:44:30.557Z,1.43
2022-09-14T13:47:01.073Z,1.90
2022-09-14T13:49:28.740Z,1.60
2022-09-14T13:52:43.080Z,2.20
2022-09-14T13:55:21.634Z,1.33
2022-09-14T13:58:10.947Z,1.73
2022-09-14T14:00:54.754Z,1.90
2022-09-14T14:03:27.881Z,2.00
2022-09-14T14:05:54.777Z,1.20
2022-09-14T14:08:29.436Z,1.47
2022-09-14T14:10:58.766Z,1.50
2022-09-14T14:13:27.215Z,1.80
2022-09-14T14:15:54.379Z,1.60
2022-09-14T14:18:38.341Z,1.30
2022-09-14T14:21:12.988Z,1.53
2022-09-14T14:23:51.292Z,1.60
2022-09-14T14:26:28.208Z,1.67
2022-09-14T14:28:55.009Z,1.80
2022-09-14T14:31:22.828Z,2.60
2022-09-14T14:33:51.305Z,1.33
2022-09-14T14:36:18.568Z,1.57
2022-09-14T14:38:46.162Z,1.60
2022-09-14T14:41:15.068Z,1.83
2022-09-14T14:43:44.506Z,1.30
2022-09-14T14:46:11.825Z,1.77
2022-09-14T14:48:38.747Z,1.73
2022-09-14T14:51:05.897Z,1.80
2022-09-14T14:53:32.556Z,2.00
2022-09-14T14:55:59.265Z,1.40
2022-09-14T14:58:25.984Z,1.60
2022-09-14T15:00:54.043Z,1.50
2022-09-14T15:03:20.925Z,2.30
2022-09-14T15:05:48.949Z,1.83
2022-09-14T15:08:17.874Z,2.20
2022-09-14T15:10:44.618Z,2.60
2022-09-14T15:13:11.858Z,1.77
2022-09-14T15:15:40.347Z,2.30
2022-09-14T15:18:08.830Z,2.27
2022-09-14T15:20:35.537Z,1.70
2022-09-14T15:23:02.344Z,1.47
2022-09-14T15:25:29.216Z,1.83
2022-09-14T15:27:55.884Z,1.80
2022-09-14T15:30:22.674Z,2.40
2022-09-14T15:32:49.377Z,2.20
2022-09-14T15:35:17.688Z,1.90
2022-09-14T15:37:46.159Z,2.67
2022-09-14T15:40:12.970Z,2.30
2022-09-14T15:42:39.882Z,2.20
2022-09-14T15:45:07.294Z,1.60
2022-09-14T15:47:36.394Z,3.90
2022-09-14T15:50:04.348Z,1.93
2022-09-14T15:52:34.792Z,1.80
2022-09-14T15:55:01.656Z,1.93
2022-09-14T15:57:28.413Z,2.10
2022-09-14T15:59:55.200Z,2.50
2022-09-14T16:02:22.031Z,1.40
2022-09-14T16:04:48.846Z,1.40
2022-09-14T16:07:15.601Z,1.97
2022-09-14T16:09:44.168Z,1.20
2022-09-14T16:12:12.645Z,1.70
2022-09-14T16:14:39.541Z,1.97
2022-09-14T16:17:06.851Z,2.40
2022-09-14T16:19:33.599Z,1.60
2022-09-14T16:22:00.549Z,1.33
2022-09-14T16:24:27.597Z,1.10
2022-09-14T16:26:55.689Z,1.50
2022-09-14T16:29:22.704Z,1.50
2022-09-14T16:31:49.561Z,1.33
2022-09-14T16:34:19.281Z,1.53
2022-09-14T16:36:46.630Z,1.30
2022-09-14T16:39:16.475Z,1.83
2022-09-14T16:41:44.067Z,1.13
2022-09-14T16:44:15.491Z,1.33
2022-09-14T16:46:42.477Z,2.40
2022-09-14T16:49:09.545Z,1.50
2022-09-14T16:51:36.611Z,1.30
2022-09-14T16:54:03.568Z,2.07
2022-09-14T16:56:32.013Z,1.30
2022-09-14T16:58:59.885Z,2.00
2022-09-14T17:01:30.095Z,1.90
2022-09-14T17:03:58.283Z,2.10
2022-09-14T17:06:28.059Z,1.20
2022-09-14T17:08:57.049Z,2.13
2022-09-14T17:11:24.158Z,1.60
2022-09-14T17:13:51.175Z,1.93
2022-09-14T17:16:19.999Z,2.03
2022-09-14T17:18:50.203Z,1.50
2022-09-14T17:21:18.237Z,1.83
2022-09-14T17:23:45.144Z,2.43
2022-09-14T17:26:13.609Z,2.30
2022-09-14T17:28:41.128Z,2.03
2022-09-14T17:31:08.569Z,2.77
2022-09-14T17:33:35.382Z,2.43
2022-09-14T17:36:05.334Z,2.23
2022-09-14T17:38:33.665Z,2.60
2022-09-14T17:41:01.888Z,2.67
2022-09-14T17:43:28.563Z,2.53
2022-09-14T17:45:56.915Z,2.90
2022-09-14T17:48:24.759Z,3.40
2022-09-14T17:50:51.471Z,3.20
2022-09-14T17:53:19.607Z,4.30
2022-09-14T17:55:46.859Z,3.13
2022-09-14T17:58:18.947Z,3.70
2022-09-14T18:00:46.563Z,2.50
2022-09-14T18:03:14.720Z,4.00
2022-09-14T18:05:41.471Z,3.47
2022-09-14T18:08:09.665Z,2.53
2022-09-14T18:10:37.783Z,3.23
2022-09-14T18:13:04.503Z,3.53
2022-09-14T18:15:31.333Z,3.47
2022-09-14T18:17:58.029Z,3.47
2022-09-14T18:20:24.709Z,2.10
2022-09-14T18:22:51.367Z,4.00
2022-09-14T18:25:18.187Z,3.57
2022-09-14T18:27:46.176Z,4.10
2022-09-14T18:30:13.594Z,2.90
2022-09-14T18:32:40.522Z,3.80
2022-09-14T18:35:08.437Z,3.50
2022-09-14T18:37:35.124Z,4.00
2022-09-14T18:40:02.519Z,3.50
2022-09-14T18:42:29.415Z,3.90
2022-09-14T18:44:57.814Z,3.70
2022-09-14T18:47:24.657Z,3.83
2022-09-14T18:49:51.757Z,2.70
2022-09-14T18:52:18.966Z,3.83
2022-09-14T18:54:45.909Z,3.60
2022-09-14T18:57:13.017Z,3.43
2022-09-14T18:59:40.057Z,3.60
2022-09-14T19:02:09.852Z,3.97
2022-09-14T19:04:36.951Z,4.40
2022-09-14T19:07:04.150Z,4.63
2022-09-14T19:09:31.787Z,4.07
2022-09-14T19:11:58.727Z,3.70
2022-09-14T19:14:25.676Z,2.53
2022-09-14T19:16:56.440Z,3.40
2022-09-14T19:19:25.246Z,4.20
2022-09-14T19:21:52.736Z,4.13
2022-09-14T19:24:19.847Z,4.40
2022-09-14T19:26:48.234Z,4.33
2022-09-14T19:29:17.404Z,3.43
2022-09-14T19:31:44.443Z,3.80
2022-09-14T19:34:11.743Z,3.80
2022-09-14T19:36:40.384Z,3.50
2022-09-14T19:39:07.159Z,3.43
2022-09-14T19:41:34.913Z,3.70
2022-09-14T19:44:02.755Z,3.27
2022-09-14T19:46:30.241Z,3.93
2022-09-14T19:48:57.206Z,3.33
2022-09-14T19:51:28.402Z,2.37
2022-09-14T19:53:58.781Z,4.13
2022-09-14T19:56:27.974Z,2.43
2022-09-14T19:58:57.058Z,3.37
2022-09-14T20:01:25.489Z,3.40
2022-09-14T20:03:53.064Z,3.30
2022-09-14T20:06:21.745Z,3.60
2022-09-14T20:08:50.103Z,3.13
2022-09-14T20:11:20.383Z,3.70
2022-09-14T20:13:47.569Z,2.87
2022-09-14T20:16:16.786Z,3.70
2022-09-14T20:18:45.217Z,4.00
2022-09-14T20:21:15.140Z,3.87
2022-09-14T20:23:57.995Z,3.70
2022-09-14T20:26:31.099Z,3.70
2022-09-14T20:28:59.219Z,3.77
2022-09-14T20:31:26.855Z,3.80
2022-09-14T20:33:54.109Z,2.63
2022-09-14T20:36:22.353Z,3.00
2022-09-14T20:38:56.969Z,3.00
2022-09-14T20:41:26.095Z,3.83
2022-09-14T20:43:55.215Z,3.80
2022-09-14T20:46:24.137Z,4.03
2022-09-14T20:48:52.230Z,3.10
2022-09-14T20:51:20.884Z,3.77
2022-09-14T20:53:48.855Z,4.10
2022-09-14T20:56:18.143Z,2.87
2022-09-14T20:58:45.930Z,2.97
2022-09-14T21:01:16.852Z,3.67
2022-09-14T21:03:45.422Z,2.97
2022-09-14T21:06:14.354Z,3.57
2022-09-14T21:08:42.704Z,3.20
2022-09-14T21:11:12.299Z,3.20
2022-09-14T21:13:39.671Z,4.10
2022-09-14T21:16:11.859Z,2.87
2022-09-14T21:18:40.520Z,3.17
2022-09-14T21:21:09.585Z,3.37
2022-09-14T21:23:36.900Z,4.20
2022-09-14T21:26:04.388Z,3.67
2022-09-14T21:28:31.805Z,2.50
2022-09-14T21:31:07.025Z,2.97
2022-09-14T21:33:35.490Z,3.00
2022-09-14T21:36:05.930Z,2.40
2022-09-14T21:38:33.094Z,4.47
2022-09-14T21:41:00.126Z,4.80
2022-09-14T21:43:27.601Z,4.27
2022-09-14T21:45:57.379Z,5.17
2022-09-14T21:48:24.588Z,4.07
2022-09-14T21:51:00.451Z,3.47
2022-09-14T21:53:28.807Z,3.80
2022-09-14T21:55:55.732Z,3.50
2022-09-14T21:58:22.685Z,4.73
2022-09-14T22:00:55.768Z,3.80
2022-09-14T22:03:22.668Z,4.40
2022-09-14T22:05:56.718Z,4.50
2022-09-14T22:08:23.967Z,4.70
2022-09-14T22:10:52.276Z,5.13
2022-09-14T22:13:19.372Z,4.83
2022-09-14T22:15:46.414Z,5.20
2022-09-14T22:18:13.763Z,5.10
2022-09-14T22:20:41.141Z,4.27
2022-09-14T22:23:08.390Z,4.80
2022-09-14T22:25:40.066Z,4.80
2022-09-14T22:28:08.633Z,3.70
2022-09-14T22:30:35.586Z,4.07
2022-09-14T22:33:02.786Z,4.23
2022-09-14T22:35:29.739Z,5.63
2022-09-14T22:37:56.684Z,4.17
2022-09-14T22:40:23.650Z,4.97
2022-09-14T22:42:50.671Z,5.13
2022-09-14T22:45:19.028Z,3.10
2022-09-14T22:47:46.755Z,6.30
2022-09-14T22:50:14.520Z,3.90
2022-09-14T22:52:41.478Z,3.37
2022-09-14T22:55:08.977Z,3.33
2022-09-14T22:57:35.861Z,3.50
2022-09-14T23:00:03.735Z,2.07
2022-09-14T23:02:32.033Z,3.50
2022-09-14T23:04:58.909Z,2.70
2022-09-14T23:07:25.892Z,3.70
2022-09-14T23:09:52.718Z,3.27
2022-09-14T23:12:19.875Z,3.13
2022-09-14T23:14:47.030Z,3.90
2022-09-14T23:17:13.850Z,3.57
2022-09-14T23:19:42.322Z,4.60
2022-09-14T23:22:09.270Z,4.07
2022-09-14T23:24:36.300Z,5.80
2022-09-14T23:27:03.334Z,3.40
2022-09-14T23:29:30.165Z,3.80
2022-09-14T23:31:57.098Z,3.83
2022-09-14T23:34:24.128Z,5.20
2022-09-14T23:36:52.475Z,4.93
2022-09-14T23:39:19.560Z,4.90
2022-09-14T23:41:46.596Z,4.73
2022-09-14T23:44:13.659Z,5.23
2022-09-14T23:46:40.893Z,3.83
2022-09-14T23:49:07.859Z,4.70
2022-09-14T23:51:34.899Z,4.20
2022-09-14T23:54:03.640Z,3.97
2022-09-14T23:56:30.567Z,4.77
2022-09-14T23:58:57.519Z,4.47
